Londonderry, Ohio
Current Conditions -  °F | °C
As of 7:14 PM on Sunday 25 Jan 2015 (Local Time) from KRZT Reporting Station
Light Rain Light Rain  
Wind Chill: 36°   Ceiling: 3000
Heat Index: 36°   Visibility: 5mi
Dew Point: 36°   Wind: 3mph
Humidity: 100%   Direction: 100°E
Pressure: 29.73"   Gusts: NA
Location:  39.27°N, 82.79°W
Report Text: KRZT 260014Z AUTO 10003KT 5SM -RA OVC030 02/02 A2973 RMK AO2 P0001
Loading
Personal Weather Stations






























Interactive Weather Map New forecast layout! Learn more

10-Day Weather Forecast

Advertisements
Track Severe Weather on mobile